createdAt,value
2022-10-28T00:00:37.204Z,12.60
2022-10-28T00:01:43.802Z,12.60
2022-10-28T00:03:01.334Z,12.60
2022-10-28T00:04:20.406Z,12.60
2022-10-28T00:05:27.033Z,12.50
2022-10-28T00:06:36.523Z,12.60
2022-10-28T00:07:47.120Z,12.60
2022-10-28T00:08:49.740Z,12.60
2022-10-28T00:10:38.556Z,12.50
2022-10-28T00:16:24.254Z,12.50
2022-10-28T00:17:35.904Z,12.50
2022-10-28T00:18:42.126Z,12.50
2022-10-28T00:20:18.049Z,12.50
2022-10-28T00:21:28.382Z,12.50
2022-10-28T00:22:40.254Z,12.50
2022-10-28T00:23:57.455Z,12.60
2022-10-28T00:25:07.489Z,12.50
2022-10-28T00:26:26.776Z,12.50
2022-10-28T00:27:48.955Z,12.60
2022-10-28T00:29:19.622Z,12.60
2022-10-28T00:31:43.260Z,12.60
2022-10-28T00:32:52.711Z,12.50
2022-10-28T00:34:01.407Z,12.60
2022-10-28T00:35:14.187Z,12.60
2022-10-28T00:36:20.083Z,12.60
2022-10-28T00:37:35.407Z,12.60
2022-10-28T00:38:53.453Z,12.60
2022-10-28T00:40:09.753Z,12.70
2022-10-28T00:41:31.780Z,12.60
2022-10-28T00:42:36.998Z,12.60
2022-10-28T00:43:44.741Z,12.60
2022-10-28T00:45:02.068Z,12.70
2022-10-28T00:46:14.444Z,12.70
2022-10-28T00:47:42.002Z,12.60
2022-10-28T00:48:52.398Z,12.70
2022-10-28T00:50:02.539Z,12.70
2022-10-28T00:51:12.537Z,12.70
2022-10-28T00:52:24.850Z,12.70
2022-10-28T00:53:32.436Z,12.70
2022-10-28T00:54:35.507Z,12.70
2022-10-28T00:55:39.108Z,12.70
2022-10-28T00:56:48.538Z,12.70
2022-10-28T00:57:53.517Z,12.70
2022-10-28T00:59:13.887Z,12.80
2022-10-28T01:00:23.902Z,12.70
2022-10-28T01:01:33.302Z,12.70
2022-10-28T01:02:58.165Z,12.70
2022-10-28T01:04:15.133Z,12.80
2022-10-28T01:05:30.382Z,12.70
2022-10-28T01:06:48.589Z,12.70
2022-10-28T01:07:56.774Z,12.70
2022-10-28T01:10:36.122Z,12.80
2022-10-28T01:12:16.074Z,12.70
2022-10-28T01:13:59.192Z,12.80
2022-10-28T01:15:28.509Z,12.70
2022-10-28T01:17:08.111Z,12.70
2022-10-28T01:19:02.199Z,12.70
2022-10-28T01:20:29.746Z,12.70
2022-10-28T01:22:18.402Z,12.60
2022-10-28T01:23:59.365Z,12.70
2022-10-28T01:25:33.763Z,12.70
2022-10-28T01:28:48.652Z,12.70
2022-10-28T01:30:12.361Z,12.60
2022-10-28T01:33:09.708Z,12.70
2022-10-28T01:34:19.915Z,12.70
2022-10-28T01:35:28.298Z,12.70
2022-10-28T01:36:46.234Z,12.70
2022-10-28T01:38:26.517Z,12.70
2022-10-28T01:40:00.787Z,12.80
2022-10-28T01:42:05.368Z,12.70
2022-10-28T01:43:35.735Z,12.70
2022-10-28T01:45:13.938Z,12.70
2022-10-28T01:46:58.044Z,12.80
2022-10-28T01:48:27.595Z,12.80
2022-10-28T01:51:28.288Z,12.80
2022-10-28T01:52:48.430Z,12.70
2022-10-28T01:53:58.466Z,12.70
2022-10-28T01:55:42.536Z,12.70
2022-10-28T01:56:51.515Z,12.80
2022-10-28T01:57:57.992Z,12.80
2022-10-28T01:59:07.641Z,12.80
2022-10-28T02:00:20.140Z,12.80
2022-10-28T02:01:34.287Z,12.80
2022-10-28T02:02:43.541Z,12.80
2022-10-28T02:03:52.668Z,12.80
2022-10-28T02:05:45.766Z,12.80
2022-10-28T02:06:59.508Z,12.80
2022-10-28T02:08:40.378Z,12.70
2022-10-28T02:10:06.790Z,12.80
2022-10-28T02:11:50.093Z,12.70
2022-10-28T02:13:09.539Z,12.70
2022-10-28T02:14:41.699Z,12.70
2022-10-28T02:16:15.514Z,12.70
2022-10-28T02:17:28.702Z,12.60
2022-10-28T02:18:45.935Z,12.60
2022-10-28T02:20:02.349Z,12.60
2022-10-28T02:21:15.161Z,12.60
2022-10-28T02:22:50.250Z,12.60
2022-10-28T02:24:35.335Z,12.60
2022-10-28T02:25:58.365Z,12.60
2022-10-28T02:27:56.396Z,12.60
2022-10-28T02:31:24.478Z,12.50
2022-10-28T02:32:39.145Z,12.50
2022-10-28T02:33:45.170Z,12.50
2022-10-28T02:34:59.331Z,12.50
2022-10-28T02:36:12.845Z,12.50
2022-10-28T02:37:32.197Z,12.50
2022-10-28T02:39:03.910Z,12.50
2022-10-28T02:40:31.112Z,12.50
2022-10-28T02:41:46.315Z,12.50
2022-10-28T02:43:16.786Z,12.50
2022-10-28T02:44:58.479Z,12.60
2022-10-28T02:46:08.774Z,12.60
2022-10-28T02:47:37.282Z,12.60
2022-10-28T02:56:06.719Z,12.60
2022-10-28T02:58:10.485Z,12.60
2022-10-28T03:01:01.920Z,12.60
2022-10-28T03:02:44.329Z,12.60
2022-10-28T03:04:17.389Z,12.60
2022-10-28T03:05:38.055Z,12.60
2022-10-28T03:07:36.421Z,12.60
2022-10-28T03:10:42.052Z,12.70
2022-10-28T03:12:12.658Z,12.70
2022-10-28T03:16:13.256Z,12.70
2022-10-28T03:18:37.871Z,12.70
2022-10-28T03:19:51.915Z,12.80
2022-10-28T03:20:58.882Z,12.80
2022-10-28T03:22:02.120Z,12.80
2022-10-28T03:23:06.044Z,12.80
2022-10-28T03:24:09.961Z,12.80
2022-10-28T03:25:20.054Z,12.80
2022-10-28T03:26:25.795Z,12.80
2022-10-28T03:27:42.795Z,12.80
2022-10-28T03:28:47.516Z,12.90
2022-10-28T03:29:53.411Z,12.90
2022-10-28T03:32:28.968Z,12.90
2022-10-28T03:33:37.818Z,12.90
2022-10-28T03:34:40.882Z,12.90
2022-10-28T03:37:17.403Z,12.90
2022-10-28T03:40:09.160Z,12.80
2022-10-28T03:41:13.331Z,12.80
2022-10-28T03:42:17.440Z,12.80
2022-10-28T03:43:27.009Z,12.80
2022-10-28T03:44:28.940Z,12.80
2022-10-28T03:45:31.982Z,12.80
2022-10-28T03:46:52.095Z,12.70
2022-10-28T03:48:14.311Z,12.80
2022-10-28T03:49:27.965Z,12.70
2022-10-28T03:50:33.635Z,12.70
2022-10-28T03:51:35.814Z,12.70
2022-10-28T03:52:39.088Z,12.70
2022-10-28T03:53:47.040Z,12.60
2022-10-28T03:54:51.649Z,12.60
2022-10-28T03:56:11.499Z,12.60
2022-10-28T03:57:13.964Z,12.60
2022-10-28T03:58:17.083Z,12.60
2022-10-28T03:59:20.378Z,12.60
2022-10-28T04:00:24.622Z,12.50
2022-10-28T04:01:26.762Z,12.50
2022-10-28T04:02:29.630Z,12.50
2022-10-28T04:03:32.187Z,12.50
2022-10-28T04:04:35.035Z,12.50
2022-10-28T04:05:37.036Z,12.50
2022-10-28T04:06:43.628Z,12.40
2022-10-28T04:07:48.549Z,12.40
2022-10-28T04:09:12.276Z,12.50
2022-10-28T04:10:15.600Z,12.40
2022-10-28T04:11:19.468Z,12.40
2022-10-28T04:12:24.952Z,12.40
2022-10-28T04:13:27.221Z,12.40
2022-10-28T04:14:31.527Z,12.40
2022-10-28T04:15:34.151Z,12.30
2022-10-28T04:16:36.400Z,12.30
2022-10-28T04:17:44.480Z,12.30
2022-10-28T04:18:54.465Z,12.30
2022-10-28T04:20:15.637Z,12.30
2022-10-28T04:22:45.247Z,12.30
2022-10-28T04:23:49.643Z,12.30
2022-10-28T04:24:57.492Z,12.30
2022-10-28T04:26:01.683Z,12.30
2022-10-28T04:27:15.302Z,12.30
2022-10-28T04:28:22.370Z,12.30
2022-10-28T04:29:33.346Z,12.30
2022-10-28T04:30:52.309Z,12.30
2022-10-28T04:32:21.310Z,12.30
2022-10-28T04:33:33.827Z,12.20
2022-10-28T04:34:38.416Z,12.20
2022-10-28T04:35:45.979Z,12.20
2022-10-28T04:36:49.128Z,12.20
2022-10-28T04:37:55.807Z,12.20
2022-10-28T04:38:58.283Z,12.10
2022-10-28T04:40:05.857Z,12.20
2022-10-28T04:41:13.611Z,12.10
2022-10-28T04:42:19.796Z,12.10
2022-10-28T04:43:28.633Z,12.10
2022-10-28T04:44:41.143Z,12.10
2022-10-28T04:45:59.616Z,12.10
2022-10-28T04:47:17.583Z,12.10
2022-10-28T04:48:22.463Z,12.00
2022-10-28T04:49:34.218Z,12.00
2022-10-28T04:50:51.076Z,12.00
2022-10-28T04:51:55.375Z,12.00
2022-10-28T04:52:57.497Z,12.00
2022-10-28T04:54:09.423Z,11.90
2022-10-28T04:55:15.619Z,11.90
2022-10-28T04:56:33.379Z,11.90
2022-10-28T04:57:40.682Z,11.90
2022-10-28T04:58:43.092Z,11.90
2022-10-28T04:59:48.719Z,11.90
2022-10-28T05:00:57.208Z,11.90
2022-10-28T05:02:01.845Z,11.90
2022-10-28T05:03:14.890Z,11.90
2022-10-28T05:04:17.869Z,11.90
2022-10-28T05:05:28.318Z,11.90
2022-10-28T05:06:30.290Z,11.80
2022-10-28T05:07:33.541Z,11.90
2022-10-28T05:08:35.429Z,11.80
2022-10-28T05:10:02.228Z,11.80
2022-10-28T05:11:12.192Z,11.80
2022-10-28T05:12:21.018Z,11.80
2022-10-28T05:13:23.020Z,11.80
2022-10-28T05:14:26.922Z,11.70
2022-10-28T05:15:31.430Z,11.70
2022-10-28T05:16:33.573Z,11.70
2022-10-28T05:17:35.579Z,11.70
2022-10-28T05:18:38.194Z,11.70
2022-10-28T05:19:40.103Z,11.70
2022-10-28T05:20:42.322Z,11.70
2022-10-28T05:21:44.044Z,11.70
2022-10-28T05:22:51.291Z,11.70
2022-10-28T05:23:53.742Z,11.70
2022-10-28T05:24:56.315Z,11.60
2022-10-28T05:25:58.326Z,11.60
2022-10-28T05:27:02.181Z,11.70
2022-10-28T05:28:05.104Z,11.60
2022-10-28T05:29:07.037Z,11.70
2022-10-28T05:30:31.104Z,11.70
2022-10-28T05:31:33.316Z,11.70
2022-10-28T05:32:36.706Z,11.70
2022-10-28T05:33:38.649Z,11.70
2022-10-28T05:34:43.055Z,11.70
2022-10-28T05:35:45.538Z,11.70
2022-10-28T05:36:47.615Z,11.70
2022-10-28T05:37:49.807Z,11.70
2022-10-28T05:38:55.523Z,11.80
2022-10-28T05:39:57.616Z,11.70
2022-10-28T05:41:00.938Z,11.70
2022-10-28T05:42:03.269Z,11.70
2022-10-28T05:43:05.702Z,11.80
2022-10-28T05:44:08.473Z,11.80
2022-10-28T05:45:12.814Z,11.80
2022-10-28T05:46:16.241Z,11.80
2022-10-28T05:47:20.471Z,11.80
2022-10-28T05:48:22.704Z,11.80
2022-10-28T05:49:26.103Z,11.80
2022-10-28T05:50:28.068Z,11.80
2022-10-28T05:51:31.490Z,11.90
2022-10-28T05:52:34.203Z,11.90
2022-10-28T05:53:36.547Z,11.90
2022-10-28T05:54:38.525Z,11.90
2022-10-28T05:55:46.793Z,11.90
2022-10-28T05:56:50.134Z,11.90
2022-10-28T05:57:55.285Z,11.90
2022-10-28T05:58:58.813Z,11.90
2022-10-28T06:00:02.565Z,11.90
2022-10-28T06:01:09.618Z,11.90
2022-10-28T06:02:19.668Z,12.00
2022-10-28T06:03:21.754Z,12.10
2022-10-28T06:04:23.718Z,12.00
2022-10-28T06:05:27.117Z,12.00
2022-10-28T06:06:29.937Z,12.00
2022-10-28T06:07:32.723Z,12.00
2022-10-28T06:08:34.901Z,12.00
2022-10-28T06:09:36.920Z,12.00
2022-10-28T06:10:40.163Z,12.00
2022-10-28T06:11:42.603Z,12.00
2022-10-28T06:12:45.443Z,12.00
2022-10-28T06:13:50.221Z,12.00
2022-10-28T06:14:52.060Z,12.00
2022-10-28T06:15:55.572Z,12.10
2022-10-28T06:16:57.517Z,12.00
2022-10-28T06:18:01.203Z,12.10
2022-10-28T06:19:03.247Z,12.00
2022-10-28T06:20:05.520Z,12.10
2022-10-28T06:21:07.527Z,12.10
2022-10-28T06:22:10.231Z,12.00
2022-10-28T06:23:12.835Z,12.00
2022-10-28T06:24:14.765Z,12.10
2022-10-28T06:25:17.860Z,12.10
2022-10-28T06:26:19.833Z,12.10
2022-10-28T06:27:21.700Z,12.10
2022-10-28T06:28:23.562Z,12.10
2022-10-28T06:29:31.213Z,12.10
2022-10-28T06:30:34.479Z,12.10
2022-10-28T06:31:41.050Z,12.10
2022-10-28T06:32:45.419Z,12.10
2022-10-28T06:33:47.454Z,12.10
2022-10-28T06:34:50.257Z,12.10
2022-10-28T06:35:59.121Z,12.10
2022-10-28T06:37:01.497Z,12.10
2022-10-28T06:38:09.602Z,12.10
2022-10-28T06:39:11.485Z,12.20
2022-10-28T06:40:15.429Z,12.10
2022-10-28T06:41:18.020Z,12.20
2022-10-28T06:42:20.337Z,12.20
2022-10-28T06:43:22.321Z,12.20
2022-10-28T06:44:24.417Z,12.20
2022-10-28T06:45:30.013Z,12.20
2022-10-28T06:46:33.381Z,12.30
2022-10-28T06:47:39.043Z,12.30
2022-10-28T06:48:43.739Z,12.30
2022-10-28T06:49:45.664Z,12.30
2022-10-28T06:50:47.458Z,12.30
2022-10-28T06:51:50.118Z,12.30
2022-10-28T06:52:51.991Z,12.40
2022-10-28T06:53:54.128Z,12.40
2022-10-28T06:54:56.019Z,12.30
2022-10-28T06:55:58.954Z,12.40
2022-10-28T06:57:01.073Z,12.40
2022-10-28T06:58:03.656Z,12.40
2022-10-28T06:59:05.714Z,12.40
2022-10-28T07:00:08.295Z,12.40
2022-10-28T07:01:10.559Z,12.40
2022-10-28T07:02:12.707Z,12.50
2022-10-28T07:03:14.746Z,12.50
2022-10-28T07:04:16.680Z,12.50
2022-10-28T07:05:18.797Z,12.50
2022-10-28T07:06:20.619Z,12.60
2022-10-28T07:07:22.433Z,12.60
2022-10-28T07:08:24.575Z,12.60
2022-10-28T07:09:26.926Z,12.60
2022-10-28T07:10:28.871Z,12.60
2022-10-28T07:11:30.686Z,12.60
2022-10-28T07:12:32.855Z,12.60
2022-10-28T07:13:34.824Z,12.60
2022-10-28T07:14:36.732Z,12.60
2022-10-28T07:15:38.720Z,12.70
2022-10-28T07:16:42.410Z,12.70
2022-10-28T07:17:44.264Z,12.70
2022-10-28T07:18:46.016Z,12.70
2022-10-28T07:19:47.750Z,12.70
2022-10-28T07:20:50.227Z,12.70
2022-10-28T07:21:52.389Z,12.80
2022-10-28T07:22:58.950Z,12.80
2022-10-28T07:24:00.936Z,12.80
2022-10-28T07:25:02.863Z,12.80
2022-10-28T07:26:05.023Z,12.80
2022-10-28T07:27:08.318Z,12.80
2022-10-28T07:31:47.989Z,12.80
2022-10-28T07:33:08.529Z,12.80
2022-10-28T07:34:31.520Z,12.80
2022-10-28T07:35:38.828Z,12.90
2022-10-28T07:38:26.848Z,12.90
2022-10-28T07:39:41.835Z,12.90
2022-10-28T07:40:51.827Z,12.90
2022-10-28T07:44:32.956Z,13.00
2022-10-28T07:47:30.983Z,13.00
2022-10-28T07:53:45.879Z,13.10
2022-10-28T07:54:48.315Z,13.10
2022-10-28T07:56:00.355Z,13.20
2022-10-28T07:57:05.543Z,13.20
2022-10-28T07:58:12.591Z,13.30
2022-10-28T07:59:26.648Z,13.30
2022-10-28T08:00:38.949Z,13.30
2022-10-28T08:01:48.764Z,13.30
2022-10-28T08:03:05.697Z,13.30
2022-10-28T08:04:23.597Z,13.40
2022-10-28T08:05:32.029Z,13.40
2022-10-28T08:08:28.598Z,13.50
2022-10-28T08:09:42.439Z,13.50
2022-10-28T08:11:18.581Z,13.50
2022-10-28T08:12:23.513Z,13.50
2022-10-28T08:13:35.753Z,13.50
2022-10-28T08:14:40.710Z,13.50
2022-10-28T08:15:45.710Z,13.50
2022-10-28T08:16:49.646Z,13.50
2022-10-28T08:18:02.613Z,13.50
2022-10-28T08:19:15.415Z,13.50
2022-10-28T08:20:22.967Z,13.50
2022-10-28T08:21:30.205Z,13.40
2022-10-28T08:22:50.291Z,13.40
2022-10-28T08:24:05.668Z,13.50
2022-10-28T08:25:14.771Z,13.50
2022-10-28T08:26:27.846Z,13.50
2022-10-28T08:27:52.907Z,13.50
2022-10-28T08:29:15.005Z,13.50
2022-10-28T08:57:31.821Z,13.30
2022-10-28T09:13:20.615Z,13.30
2022-10-28T09:14:26.716Z,13.30
2022-10-28T09:15:43.636Z,13.30
2022-10-28T09:24:34.558Z,13.40
2022-10-28T09:26:17.779Z,13.50
2022-10-28T09:37:27.039Z,13.40
2022-10-28T09:40:40.898Z,13.40
2022-10-28T09:43:48.805Z,13.40
2022-10-28T09:45:24.268Z,13.50
2022-10-28T09:47:20.105Z,13.50
2022-10-28T09:51:03.068Z,13.50
2022-10-28T09:52:08.859Z,13.40
2022-10-28T09:55:43.927Z,13.50
2022-10-28T09:57:12.631Z,13.40
2022-10-28T09:58:26.102Z,13.50
2022-10-28T09:59:28.987Z,13.50
2022-10-28T10:26:08.068Z,13.20
2022-10-28T10:39:30.366Z,13.30
2022-10-28T10:44:23.586Z,13.40
2022-10-28T10:45:27.726Z,13.40
2022-10-28T10:46:44.294Z,13.40
2022-10-28T10:48:12.756Z,13.50
2022-10-28T11:04:30.928Z,13.40
2022-10-28T11:05:45.463Z,13.30
2022-10-28T11:07:01.583Z,13.30
2022-10-28T11:08:37.887Z,13.40
2022-10-28T11:42:20.716Z,13.40
2022-10-28T11:43:50.919Z,13.50
2022-10-28T12:01:02.910Z,13.70
2022-10-28T12:02:25.373Z,13.70
2022-10-28T12:03:56.572Z,13.70
2022-10-28T12:05:46.419Z,13.80
2022-10-28T12:07:17.928Z,13.80
2022-10-28T12:08:35.929Z,13.90
2022-10-28T12:09:41.060Z,14.00
2022-10-28T12:11:21.832Z,14.00
2022-10-28T12:12:57.907Z,14.10
2022-10-28T12:14:41.865Z,14.10
2022-10-28T12:20:51.810Z,14.10
2022-10-28T12:24:49.657Z,13.90
2022-10-28T12:26:10.039Z,13.90
2022-10-28T12:27:36.193Z,13.90
2022-10-28T12:28:55.558Z,13.90
2022-10-28T12:30:08.371Z,13.90
2022-10-28T12:31:49.559Z,13.90
2022-10-28T12:33:07.050Z,13.90
2022-10-28T12:34:21.911Z,13.90
2022-10-28T12:35:48.626Z,13.80
2022-10-28T12:37:01.050Z,13.80
2022-10-28T12:38:31.832Z,13.90
2022-10-28T12:39:46.530Z,13.90
2022-10-28T12:40:51.937Z,13.90
2022-10-28T12:42:12.966Z,13.90
2022-10-28T12:46:38.429Z,13.90
2022-10-28T12:47:46.098Z,13.90
2022-10-28T12:48:57.093Z,14.00
2022-10-28T12:50:32.856Z,14.00
2022-10-28T12:51:59.816Z,14.00
2022-10-28T12:53:04.845Z,14.00
2022-10-28T12:54:28.584Z,14.00
2022-10-28T12:56:02.128Z,14.00
2022-10-28T12:57:35.338Z,14.00
2022-10-28T13:00:17.664Z,14.00
2022-10-28T13:01:28.652Z,14.00
2022-10-28T13:02:40.190Z,14.10
2022-10-28T13:03:43.879Z,14.10
2022-10-28T13:04:46.508Z,14.10
2022-10-28T13:05:56.275Z,14.20
2022-10-28T13:07:25.089Z,14.20
2022-10-28T13:10:33.558Z,14.20
2022-10-28T13:12:02.936Z,14.20
2022-10-28T13:13:24.524Z,14.20
2022-10-28T13:14:53.855Z,14.20
2022-10-28T13:16:15.139Z,14.20
2022-10-28T13:17:52.030Z,14.10
2022-10-28T13:19:18.476Z,14.10
2022-10-28T13:20:41.454Z,14.10
2022-10-28T13:22:21.699Z,14.10
2022-10-28T13:24:07.588Z,14.10
2022-10-28T13:25:28.108Z,14.10
2022-10-28T13:26:36.456Z,14.10
2022-10-28T13:27:40.447Z,14.10
2022-10-28T13:30:33.476Z,14.20
2022-10-28T13:31:50.076Z,14.20
2022-10-28T13:33:09.294Z,14.20
2022-10-28T13:34:23.857Z,14.20
2022-10-28T14:30:25.787Z,13.50
2022-10-28T14:31:41.947Z,13.50
2022-10-28T14:33:07.165Z,13.60
2022-10-28T14:34:19.208Z,13.60
2022-10-28T14:35:44.746Z,13.60
2022-10-28T14:36:58.444Z,13.60
2022-10-28T14:38:30.034Z,13.60
2022-10-28T14:39:32.115Z,13.60
2022-10-28T14:40:53.490Z,13.60
2022-10-28T14:42:27.513Z,13.60
2022-10-28T14:43:43.640Z,13.60
2022-10-28T14:45:07.900Z,13.60
2022-10-28T14:46:17.123Z,13.60
2022-10-28T14:48:04.860Z,13.60
2022-10-28T14:49:42.010Z,13.60
2022-10-28T14:50:50.890Z,13.50
2022-10-28T14:52:23.609Z,13.50
2022-10-28T14:53:45.014Z,13.50
2022-10-28T14:54:55.665Z,13.50
2022-10-28T14:56:10.176Z,13.50
2022-10-28T14:57:17.565Z,13.50
2022-10-28T14:58:31.465Z,13.60
2022-10-28T14:59:44.284Z,13.60
2022-10-28T15:00:56.516Z,13.60
2022-10-28T15:02:22.625Z,13.60
2022-10-28T15:03:26.478Z,13.60
2022-10-28T15:04:30.166Z,13.60
2022-10-28T15:05:50.615Z,13.60
2022-10-28T15:06:54.894Z,13.60
2022-10-28T15:08:03.664Z,13.60
2022-10-28T15:09:21.713Z,13.60
2022-10-28T15:10:35.147Z,13.60
2022-10-28T15:11:41.433Z,13.60
2022-10-28T15:12:55.889Z,13.60
2022-10-28T15:14:38.147Z,13.60
2022-10-28T15:16:37.249Z,13.60
2022-10-28T15:17:41.349Z,13.50
2022-10-28T15:18:48.687Z,13.50
2022-10-28T15:19:56.164Z,13.50
2022-10-28T15:21:11.882Z,13.50
2022-10-28T15:22:20.327Z,13.60
2022-10-28T15:23:28.714Z,13.60
2022-10-28T15:24:30.716Z,13.60
2022-10-28T15:25:37.437Z,13.50
2022-10-28T15:26:39.434Z,13.60
2022-10-28T15:27:43.188Z,13.60
2022-10-28T15:28:46.891Z,13.60
2022-10-28T15:29:50.873Z,13.60
2022-10-28T15:30:56.439Z,13.60
2022-10-28T15:32:07.625Z,13.60
2022-10-28T15:33:20.485Z,13.60
2022-10-28T15:34:29.601Z,13.60
2022-10-28T15:35:33.046Z,13.50
2022-10-28T15:36:36.885Z,13.50
2022-10-28T15:37:39.960Z,13.50
2022-10-28T15:38:54.113Z,13.50
2022-10-28T15:40:21.020Z,13.50
2022-10-28T15:41:27.938Z,13.50
2022-10-28T15:42:39.644Z,13.50
2022-10-28T15:44:08.116Z,13.40
2022-10-28T15:45:42.564Z,13.40
2022-10-28T15:46:51.019Z,13.40
2022-10-28T15:47:58.474Z,13.40
2022-10-28T15:49:03.148Z,13.30
2022-10-28T15:50:26.432Z,13.30
2022-10-28T15:51:40.119Z,13.40
2022-10-28T15:52:57.911Z,13.40
2022-10-28T15:54:21.692Z,13.30
2022-10-28T15:56:09.662Z,13.40
2022-10-28T15:57:26.029Z,13.30
2022-10-28T15:58:35.854Z,13.30
2022-10-28T15:59:44.991Z,13.30
2022-10-28T16:00:57.647Z,13.30
2022-10-28T16:02:12.648Z,13.30
2022-10-28T16:03:36.003Z,13.30
2022-10-28T16:04:49.144Z,13.30
2022-10-28T16:05:53.398Z,13.20
2022-10-28T16:06:58.522Z,13.20
2022-10-28T16:08:05.949Z,13.20
2022-10-28T16:09:17.737Z,13.20
2022-10-28T16:10:21.788Z,13.20
2022-10-28T16:11:31.822Z,13.30
2022-10-28T16:12:33.810Z,13.20
2022-10-28T16:13:39.836Z,13.30
2022-10-28T16:14:52.928Z,13.30
2022-10-28T16:16:03.150Z,13.30
2022-10-28T16:17:11.341Z,13.30
2022-10-28T16:18:14.015Z,13.30
2022-10-28T16:19:28.865Z,13.30
2022-10-28T16:20:31.074Z,13.30
2022-10-28T16:21:42.752Z,13.40
2022-10-28T16:22:49.736Z,13.40
2022-10-28T16:24:01.563Z,13.40
2022-10-28T16:25:20.984Z,13.40
2022-10-28T16:26:24.667Z,13.40
2022-10-28T16:27:33.094Z,13.40
2022-10-28T16:28:39.083Z,13.40
2022-10-28T16:29:43.717Z,13.40
2022-10-28T16:30:57.941Z,13.40
2022-10-28T16:32:00.985Z,13.50
2022-10-28T16:33:03.171Z,13.50
2022-10-28T16:34:17.887Z,13.50
2022-10-28T16:35:24.491Z,13.50
2022-10-28T16:36:28.650Z,13.50
2022-10-28T16:37:37.452Z,13.50
2022-10-28T16:38:43.003Z,13.50
2022-10-28T16:39:46.165Z,13.50
2022-10-28T16:40:52.471Z,13.50
2022-10-28T16:41:57.118Z,13.50
2022-10-28T16:43:01.901Z,13.50
2022-10-28T16:44:04.424Z,13.50
2022-10-28T16:45:10.012Z,13.50
2022-10-28T16:46:20.858Z,13.50
2022-10-28T16:47:27.479Z,13.50
2022-10-28T16:48:34.138Z,13.50
2022-10-28T16:49:45.224Z,13.50
2022-10-28T16:51:17.392Z,13.50
2022-10-28T16:52:30.276Z,13.50
2022-10-28T16:53:50.269Z,13.40
2022-10-28T16:55:03.250Z,13.50
2022-10-28T16:56:11.122Z,13.50
2022-10-28T16:57:17.041Z,13.50
2022-10-28T16:58:24.648Z,13.50
2022-10-28T16:59:32.549Z,13.50
2022-10-28T17:00:36.522Z,13.40
2022-10-28T17:01:42.253Z,13.50
2022-10-28T17:02:46.383Z,13.50
2022-10-28T17:03:55.341Z,13.50
2022-10-28T17:04:58.696Z,13.50
2022-10-28T17:06:07.856Z,13.50
2022-10-28T17:07:14.970Z,13.50
2022-10-28T17:08:48.978Z,13.50
2022-10-28T17:09:48.555Z,13.50
2022-10-28T17:10:50.914Z,13.40
2022-10-28T17:11:53.508Z,13.40
2022-10-28T17:12:56.170Z,13.40
2022-10-28T17:16:05.527Z,13.40
2022-10-28T17:17:07.764Z,13.40
2022-10-28T17:18:12.845Z,13.40
2022-10-28T17:19:14.929Z,13.40
2022-10-28T17:20:17.813Z,13.40
2022-10-28T17:21:20.999Z,13.40
2022-10-28T17:22:24.142Z,13.40
2022-10-28T17:23:28.705Z,13.50
2022-10-28T17:24:34.349Z,13.40
2022-10-28T17:26:52.993Z,13.40
2022-10-28T17:27:58.819Z,13.50
2022-10-28T17:30:28.950Z,13.50
2022-10-28T17:31:31.465Z,13.40
2022-10-28T17:32:46.060Z,13.40
2022-10-28T17:33:52.808Z,13.40
2022-10-28T17:34:54.723Z,13.40
2022-10-28T17:36:00.722Z,13.40
2022-10-28T17:37:02.910Z,13.40
2022-10-28T17:38:06.394Z,13.40
2022-10-28T17:39:21.944Z,13.40
2022-10-28T17:40:36.183Z,13.40
2022-10-28T17:41:42.513Z,13.40
2022-10-28T17:42:46.259Z,13.50
2022-10-28T17:43:54.389Z,13.40
2022-10-28T17:44:56.393Z,13.40
2022-10-28T17:46:07.901Z,13.40
2022-10-28T17:47:12.347Z,13.50
2022-10-28T17:48:15.285Z,13.40
2022-10-28T17:49:18.108Z,13.40
2022-10-28T17:50:21.895Z,13.50
2022-10-28T17:51:25.207Z,13.50
2022-10-28T17:52:38.333Z,13.50
2022-10-28T17:53:42.189Z,13.50
2022-10-28T17:54:46.532Z,13.50
2022-10-28T17:56:08.447Z,13.50
2022-10-28T17:57:12.456Z,13.50
2022-10-28T17:58:15.380Z,13.50
2022-10-28T17:59:22.908Z,13.50
2022-10-28T18:00:26.644Z,13.50
2022-10-28T18:01:32.477Z,13.50
2022-10-28T18:02:42.727Z,13.50
2022-10-28T18:03:50.976Z,13.50
2022-10-28T18:04:53.800Z,13.50
2022-10-28T18:05:57.023Z,13.50
2022-10-28T18:07:05.974Z,13.50
2022-10-28T18:08:09.403Z,13.60
2022-10-28T18:09:13.092Z,13.60
2022-10-28T18:10:17.093Z,13.60
2022-10-28T18:11:22.655Z,13.60
2022-10-28T18:12:24.933Z,13.60
2022-10-28T18:13:32.545Z,13.60
2022-10-28T18:14:34.761Z,13.60
2022-10-28T18:15:37.668Z,13.60
2022-10-28T18:16:39.685Z,13.60
2022-10-28T18:17:41.609Z,13.60
2022-10-28T18:18:43.764Z,13.60
2022-10-28T18:19:46.123Z,13.70
2022-10-28T18:20:55.691Z,13.70
2022-10-28T18:21:57.854Z,13.70
2022-10-28T18:23:00.606Z,13.70
2022-10-28T18:24:05.645Z,13.70
2022-10-28T18:25:07.907Z,13.70
2022-10-28T18:26:14.492Z,13.70
2022-10-28T18:27:16.379Z,13.70
2022-10-28T18:28:22.962Z,13.70
2022-10-28T18:29:25.545Z,13.70
2022-10-28T18:30:27.385Z,13.70
2022-10-28T18:31:35.090Z,13.70
2022-10-28T18:32:37.472Z,13.70
2022-10-28T18:33:40.509Z,13.70
2022-10-28T18:34:44.374Z,13.70
2022-10-28T18:36:50.502Z,13.80
2022-10-28T18:37:54.140Z,13.80
2022-10-28T18:38:58.314Z,13.80
2022-10-28T18:40:00.737Z,13.80
2022-10-28T18:41:03.148Z,13.70
2022-10-28T18:42:05.999Z,13.80
2022-10-28T18:43:08.438Z,13.80
2022-10-28T18:44:17.694Z,13.80
2022-10-28T18:45:20.397Z,13.80
2022-10-28T18:46:23.643Z,13.80
2022-10-28T18:47:26.742Z,13.80
2022-10-28T18:48:31.651Z,13.80
2022-10-28T18:49:33.696Z,13.80
2022-10-28T18:50:41.839Z,13.80
2022-10-28T18:51:45.182Z,13.80
2022-10-28T18:52:48.321Z,13.80
2022-10-28T18:53:56.330Z,13.80
2022-10-28T18:55:00.833Z,13.80
2022-10-28T18:56:08.234Z,13.90
2022-10-28T18:57:15.302Z,13.90
2022-10-28T18:58:31.969Z,13.90
2022-10-28T18:59:43.260Z,13.90
2022-10-28T19:01:23.500Z,13.90
2022-10-28T19:02:49.076Z,13.80
2022-10-28T19:04:11.475Z,13.80
2022-10-28T19:05:14.734Z,13.80
2022-10-28T19:06:30.683Z,13.80
2022-10-28T19:08:23.524Z,13.80
2022-10-28T19:09:29.294Z,13.80
2022-10-28T19:10:41.315Z,13.80
2022-10-28T19:11:50.935Z,13.80
2022-10-28T19:12:55.113Z,13.80
2022-10-28T19:14:03.978Z,13.80
2022-10-28T19:15:08.123Z,13.80
2022-10-28T19:17:13.455Z,13.80
2022-10-28T19:18:19.217Z,13.80
2022-10-28T19:19:21.554Z,13.80
2022-10-28T19:20:24.401Z,13.90
2022-10-28T19:21:28.606Z,13.80
2022-10-28T19:22:33.326Z,13.90
2022-10-28T19:23:35.658Z,13.80
2022-10-28T19:24:41.851Z,13.80
2022-10-28T19:25:54.397Z,13.80
2022-10-28T19:26:57.010Z,13.90
2022-10-28T19:28:03.107Z,13.80
2022-10-28T19:29:06.631Z,13.90
2022-10-28T19:30:12.447Z,13.90
2022-10-28T19:31:18.801Z,13.90
2022-10-28T19:32:20.695Z,13.90
2022-10-28T19:33:22.710Z,13.90
2022-10-28T19:34:24.700Z,13.90
2022-10-28T19:35:26.539Z,13.90
2022-10-28T19:36:33.263Z,13.90
2022-10-28T19:37:35.308Z,13.90
2022-10-28T19:38:40.024Z,13.90
2022-10-28T19:39:42.077Z,13.90
2022-10-28T19:40:44.498Z,13.90
2022-10-28T19:41:47.154Z,13.90
2022-10-28T19:42:53.575Z,13.90
2022-10-28T19:44:07.557Z,13.90
2022-10-28T19:45:12.745Z,14.00
2022-10-28T19:46:19.580Z,13.90
2022-10-28T19:47:21.860Z,13.90
2022-10-28T19:48:24.156Z,14.00
2022-10-28T19:49:28.721Z,14.00
2022-10-28T19:50:40.650Z,14.00
2022-10-28T19:51:42.779Z,14.00
2022-10-28T19:52:47.676Z,14.00
2022-10-28T19:53:50.705Z,14.00
2022-10-28T19:54:52.697Z,14.00
2022-10-28T19:55:59.858Z,14.00
2022-10-28T19:57:05.358Z,14.00
2022-10-28T19:58:08.900Z,14.00
2022-10-28T19:59:14.591Z,14.00
2022-10-28T20:00:21.756Z,14.00
2022-10-28T20:01:25.991Z,14.00
2022-10-28T20:02:30.028Z,14.00
2022-10-28T20:03:34.599Z,14.00
2022-10-28T20:04:40.356Z,14.00
2022-10-28T20:05:42.964Z,14.00
2022-10-28T20:06:52.754Z,14.00
2022-10-28T20:08:01.079Z,14.00
2022-10-28T20:09:06.790Z,14.10
2022-10-28T20:10:10.689Z,14.00
2022-10-28T20:11:21.537Z,14.00
2022-10-28T20:12:34.286Z,14.00
2022-10-28T20:13:37.646Z,14.10
2022-10-28T20:14:46.634Z,14.00
2022-10-28T20:15:52.299Z,14.10
2022-10-28T20:17:05.526Z,14.10
2022-10-28T20:18:09.637Z,14.10
2022-10-28T20:19:18.484Z,14.10
2022-10-28T20:20:21.215Z,14.10